Time;durP1;ratioP1;P1;durP2;ratioP2;P2;SDS_P1;SDS_P2;PMS_P1;PMS_P2;Temp;Humidity;BMP_temperature;BMP_pressure;BME280_temperature;BME280_humidity;BME280_pressure;Samples;Min_cycle;Max_cycle;Signal;HPM_P1;HPM_P2
2022/08/16 00:01:54;;;;;;;;;;;28.80;79.50;;;;;;5032871;28;19932;-57
2022/08/16 00:04:26;;;;;;;;;;;28.80;79.50;;;;;;5045678;28;19925;-56
2022/08/16 00:06:53;;;;;;;;;;;28.80;79.60;;;;;;5036130;28;19936;-52
2022/08/16 00:09:20;;;;;;;;;;;28.80;79.60;;;;;;5041276;28;19936;-52
2022/08/16 00:11:49;;;;;;;;;;;28.80;79.60;;;;;;5036697;28;20356;-58
2022/08/16 00:14:21;;;;;;;;;;;28.80;79.60;;;;;;5019104;28;19936;-56
2022/08/16 00:16:55;;;;;;;;;;;28.80;79.60;;;;;;5036493;28;19925;-57
2022/08/16 00:19:42;;;;;;;;;;;28.80;79.60;;;;;;5041229;28;19956;-55
2022/08/16 00:22:09;;;;;;;;;;;28.80;79.60;;;;;;5035886;28;20302;-56
2022/08/16 00:24:42;;;;;;;;;;;28.80;79.60;;;;;;5033963;28;19932;-57
2022/08/16 00:27:12;;;;;;;;;;;28.80;79.60;;;;;;5032587;28;20427;-55
2022/08/16 00:29:40;;;;;;;;;;;28.80;79.60;;;;;;5041927;28;20401;-57
2022/08/16 00:32:07;;;;;;;;;;;28.80;79.60;;;;;;5037978;28;19924;-57
2022/08/16 00:34:37;;;;;;;;;;;28.80;79.70;;;;;;5033248;28;19936;-57
2022/08/16 00:37:12;;;;;;;;;;;28.80;79.70;;;;;;5038343;28;19929;-54
2022/08/16 00:39:45;;;;;;;;;;;28.80;79.60;;;;;;5037082;28;19936;-54
2022/08/16 00:42:14;;;;;;;;;;;28.80;79.70;;;;;;5039708;28;20241;-56
2022/08/16 00:45:11;;;;;;;;;;;28.80;79.70;;;;;;5040702;28;19929;-54
2022/08/16 00:47:43;;;;;;;;;;;28.80;79.70;;;;;;5034653;28;19928;-54
2022/08/16 00:50:18;;;;;;;;;;;28.70;79.60;;;;;;5041043;28;19936;-55
2022/08/16 00:52:45;;;;;;;;;;;28.70;79.60;;;;;;5043713;28;20244;-54
2022/08/16 00:55:22;;;;;;;;;;;28.70;79.70;;;;;;5043798;28;19933;-54
2022/08/16 00:57:51;;;;;;;;;;;28.70;79.70;;;;;;5032796;28;20341;-53
2022/08/16 01:00:28;;;;;;;;;;;28.70;79.60;;;;;;5031224;28;19928;-54
2022/08/16 01:02:56;;;;;;;;;;;28.70;79.70;;;;;;5029248;28;19929;-55
2022/08/16 01:05:24;;;;;;;;;;;28.70;79.70;;;;;;5035980;28;19933;-56
2022/08/16 01:07:52;;;;;;;;;;;28.70;79.70;;;;;;5040575;28;19933;-53
2022/08/16 01:10:21;;;;;;;;;;;28.70;79.70;;;;;;5036674;28;20324;-55
2022/08/16 01:13:01;;;;;;;;;;;28.70;79.70;;;;;;5036073;28;19929;-53
2022/08/16 01:15:32;;;;;;;;;;;28.70;79.70;;;;;;5032203;28;19949;-56
2022/08/16 01:17:59;;;;;;;;;;;28.70;79.70;;;;;;5035443;28;20316;-54
2022/08/16 01:20:28;;;;;;;;;;;28.70;79.70;;;;;;5019161;28;19940;-52
2022/08/16 01:22:57;;;;;;;;;;;28.70;79.80;;;;;;5018581;28;20427;-53
2022/08/16 01:25:28;;;;;;;;;;;28.70;79.70;;;;;;5035008;28;19933;-55
2022/08/16 01:28:05;;;;;;;;;;;28.60;79.70;;;;;;5032272;28;19932;-55
2022/08/16 01:30:36;;;;;;;;;;;28.60;79.70;;;;;;5035332;28;19963;-53
2022/08/16 01:33:16;;;;;;;;;;;28.70;79.80;;;;;;5027567;28;19929;-51
2022/08/16 01:35:59;;;;;;;;;;;28.60;79.70;;;;;;5017049;28;20332;-58
2022/08/16 01:38:28;;;;;;;;;;;28.60;79.70;;;;;;5014077;28;19925;-55
2022/08/16 01:40:59;;;;;;;;;;;28.60;79.70;;;;;;5018830;28;20412;-52
2022/08/16 01:43:30;;;;;;;;;;;28.60;79.70;;;;;;5037409;28;19936;-54
2022/08/16 01:45:59;;;;;;;;;;;28.60;79.70;;;;;;5011947;28;20396;-56
2022/08/16 01:48:47;;;;;;;;;;;28.60;79.70;;;;;;5019552;28;19926;-55
2022/08/16 01:51:17;;;;;;;;;;;28.60;79.70;;;;;;5019037;28;19928;-56
2022/08/16 01:53:46;;;;;;;;;;;28.60;79.70;;;;;;5022673;28;19925;-56
2022/08/16 01:56:45;;;;;;;;;;;28.60;79.70;;;;;;5035353;28;19940;-56
2022/08/16 01:59:15;;;;;;;;;;;28.60;79.70;;;;;;5028742;28;19936;-55
2022/08/16 02:01:46;;;;;;;;;;;28.60;79.80;;;;;;5042120;28;20296;-56
2022/08/16 02:04:22;;;;;;;;;;;28.60;79.70;;;;;;5031269;28;19936;-58
2022/08/16 02:07:11;;;;;;;;;;;28.60;79.80;;;;;;5034055;28;19925;-57
2022/08/16 02:09:40;;;;;;;;;;;28.60;79.80;;;;;;5029675;28;19929;-55
2022/08/16 02:12:11;;;;;;;;;;;28.60;79.80;;;;;;5018851;28;21722;-56
2022/08/16 02:14:58;;;;;;;;;;;28.60;79.80;;;;;;5034248;28;19929;-58
2022/08/16 02:17:27;;;;;;;;;;;28.60;79.80;;;;;;5034757;28;19936;-59
2022/08/16 02:19:56;;;;;;;;;;;28.60;79.80;;;;;;5032977;28;19933;-58
2022/08/16 02:22:27;;;;;;;;;;;28.60;79.80;;;;;;5035853;28;19935;-54
2022/08/16 02:25:04;;;;;;;;;;;28.50;79.80;;;;;;5035005;28;19925;-56
2022/08/16 02:27:31;;;;;;;;;;;28.50;79.80;;;;;;5019431;28;20277;-58
2022/08/16 02:29:59;;;;;;;;;;;28.50;79.80;;;;;;5019927;28;19936;-55
2022/08/16 02:32:33;;;;;;;;;;;28.50;79.80;;;;;;5014514;28;19929;-50
2022/08/16 02:35:19;;;;;;;;;;;28.50;79.80;;;;;;5014806;28;19940;-56
2022/08/16 02:37:51;;;;;;;;;;;28.50;79.80;;;;;;5029043;28;19928;-55
2022/08/16 02:40:24;;;;;;;;;;;28.50;80.10;;;;;;5017719;28;19940;-56
2022/08/16 02:42:52;;;;;;;;;;;28.50;79.80;;;;;;5018381;28;19936;-57
2022/08/16 02:45:22;;;;;;;;;;;28.50;79.80;;;;;;5035287;28;19933;-57
2022/08/16 02:47:54;;;;;;;;;;;28.50;79.80;;;;;;5020702;28;19940;-58
2022/08/16 02:50:41;;;;;;;;;;;28.50;79.80;;;;;;5012977;28;19928;-55
2022/08/16 02:53:28;;;;;;;;;;;28.50;79.80;;;;;;5043593;28;19933;-58
2022/08/16 02:55:57;;;;;;;;;;;28.50;79.90;;;;;;5016128;28;19929;-53
2022/08/16 02:58:25;;;;;;;;;;;28.50;79.90;;;;;;5041378;28;19931;-52
2022/08/16 03:00:54;;;;;;;;;;;28.50;79.90;;;;;;5012702;28;19933;-50
2022/08/16 03:03:25;;;;;;;;;;;28.50;79.90;;;;;;5030856;28;19940;-57
2022/08/16 03:05:53;;;;;;;;;;;28.40;79.80;;;;;;5020004;28;19932;-54
2022/08/16 03:08:22;;;;;;;;;;;28.50;79.90;;;;;;5018079;28;20423;-55
2022/08/16 03:11:11;;;;;;;;;;;28.40;79.80;;;;;;5036005;28;19932;-53
2022/08/16 03:13:46;;;;;;;;;;;28.50;79.90;;;;;;5013424;28;19933;-55
2022/08/16 03:16:16;;;;;;;;;;;28.40;79.90;;;;;;5013089;28;19925;-54
2022/08/16 03:19:03;;;;;;;;;;;28.40;79.90;;;;;;5010199;28;20350;-57
2022/08/16 03:21:32;;;;;;;;;;;28.40;79.90;;;;;;5014334;28;19941;-58
2022/08/16 03:24:06;;;;;;;;;;;28.40;79.90;;;;;;5006316;28;19952;-53
2022/08/16 03:26:59;;;;;;;;;;;28.40;79.90;;;;;;5013296;28;19929;-56
2022/08/16 03:29:30;;;;;;;;;;;28.40;79.90;;;;;;5018963;28;19929;-57
2022/08/16 03:31:59;;;;;;;;;;;28.40;79.90;;;;;;5014331;28;19944;-57
2022/08/16 03:34:29;;;;;;;;;;;28.40;79.90;;;;;;5007689;28;19933;-57
2022/08/16 03:36:56;;;;;;;;;;;28.40;79.90;;;;;;5012246;28;20420;-57
2022/08/16 03:39:24;;;;;;;;;;;28.40;79.90;;;;;;5016562;28;20918;-57
2022/08/16 03:41:53;;;;;;;;;;;28.40;79.90;;;;;;5014457;28;20297;-58
2022/08/16 03:44:27;;;;;;;;;;;28.40;79.90;;;;;;5012401;28;19930;-53
2022/08/16 03:47:15;;;;;;;;;;;28.40;80.00;;;;;;5036059;28;19929;-55
2022/08/16 03:49:48;;;;;;;;;;;28.40;79.90;;;;;;5038837;28;19937;-55
2022/08/16 03:52:19;;;;;;;;;;;28.30;79.90;;;;;;5006716;28;19929;-57
2022/08/16 03:54:51;;;;;;;;;;;28.30;79.90;;;;;;5014748;28;19984;-54
2022/08/16 03:57:24;;;;;;;;;;;28.40;80.00;;;;;;5039961;28;19929;-55
2022/08/16 04:00:11;;;;;;;;;;;28.30;79.90;;;;;;5029186;28;19926;-56
2022/08/16 04:03:06;;;;;;;;;;;28.30;80.00;;;;;;4997588;28;19929;-55
2022/08/16 04:05:38;;;;;;;;;;;28.30;80.00;;;;;;5014383;28;19929;-54
2022/08/16 04:08:05;;;;;;;;;;;28.30;80.00;;;;;;5012861;28;20405;-56
2022/08/16 04:10:54;;;;;;;;;;;28.30;80.00;;;;;;5013379;28;20320;-57
2022/08/16 04:13:24;;;;;;;;;;;28.30;80.00;;;;;;5008822;28;20510;-58
2022/08/16 04:16:11;;;;;;;;;;;28.30;80.00;;;;;;5018970;28;19932;-58
2022/08/16 04:19:05;;;;;;;;;;;28.30;80.00;;;;;;5018853;28;19936;-57
2022/08/16 04:21:33;;;;;;;;;;;28.30;80.00;;;;;;5017542;28;20393;-54
2022/08/16 04:24:01;;;;;;;;;;;28.30;80.00;;;;;;5011351;28;19925;-56
2022/08/16 04:26:29;;;;;;;;;;;28.30;80.10;;;;;;5024114;28;20408;-54
2022/08/16 04:29:00;;;;;;;;;;;28.30;80.00;;;;;;5016404;28;19929;-56
2022/08/16 04:31:48;;;;;;;;;;;28.30;80.00;;;;;;5040769;28;19932;-54
2022/08/16 04:34:26;;;;;;;;;;;28.30;80.00;;;;;;5011365;28;20317;-58
2022/08/16 04:36:54;;;;;;;;;;;28.20;80.00;;;;;;5016881;28;19929;-56
2022/08/16 04:39:26;;;;;;;;;;;28.30;80.00;;;;;;5026989;28;19937;-58
2022/08/16 04:42:14;;;;;;;;;;;28.30;80.00;;;;;;5020147;28;19929;-57
2022/08/16 04:44:42;;;;;;;;;;;28.20;80.00;;;;;;5022032;28;19928;-56
2022/08/16 04:47:27;;;;;;;;;;;28.30;80.10;;;;;;5030391;28;19933;-55
2022/08/16 04:50:10;;;;;;;;;;;28.20;80.00;;;;;;5036095;28;19951;-55
2022/08/16 04:52:57;;;;;;;;;;;28.30;80.10;;;;;;5039138;28;19926;-51
2022/08/16 04:55:28;;;;;;;;;;;28.30;80.10;;;;;;5025103;28;19929;-55
2022/08/16 04:58:05;;;;;;;;;;;28.20;80.00;;;;;;5015803;28;20212;-52
2022/08/16 05:00:54;;;;;;;;;;;28.20;80.00;;;;;;5040733;28;19929;-57
2022/08/16 05:03:23;;;;;;;;;;;28.20;80.00;;;;;;5018955;28;19932;-59
2022/08/16 05:05:53;;;;;;;;;;;28.20;80.00;;;;;;5041648;28;19926;-56
2022/08/16 05:08:31;;;;;;;;;;;28.20;80.00;;;;;;5020310;28;19925;-52
2022/08/16 05:11:07;;;;;;;;;;;28.20;80.00;;;;;;5020269;28;19929;-54
2022/08/16 05:13:36;;;;;;;;;;;28.20;80.00;;;;;;5036301;28;20436;-53
2022/08/16 05:16:13;;;;;;;;;;;28.20;80.00;;;;;;5029339;28;19925;-55
2022/08/16 05:18:52;;;;;;;;;;;28.20;80.00;;;;;;5015729;28;20383;-51
2022/08/16 05:21:23;;;;;;;;;;;28.20;80.10;;;;;;5022048;28;20313;-51
2022/08/16 05:23:55;;;;;;;;;;;28.20;80.10;;;;;;5015100;28;19933;-53
2022/08/16 05:26:30;;;;;;;;;;;28.20;80.00;;;;;;5036128;28;20312;-54
2022/08/16 05:28:59;;;;;;;;;;;28.20;80.10;;;;;;5023565;28;19929;-58
2022/08/16 05:31:30;;;;;;;;;;;28.20;80.00;;;;;;5011697;28;19929;-59
2022/08/16 05:33:59;;;;;;;;;;;28.20;80.00;;;;;;5025053;28;19929;-57
2022/08/16 05:36:26;;;;;;;;;;;28.20;80.00;;;;;;5039662;28;19925;-56
2022/08/16 05:39:07;;;;;;;;;;;28.20;80.00;;;;;;5012073;28;19937;-58
2022/08/16 05:41:36;;;;;;;;;;;28.20;80.00;;;;;;5014676;28;19928;-56
2022/08/16 05:44:14;;;;;;;;;;;28.20;80.00;;;;;;5042264;28;19929;-58
2022/08/16 05:46:55;;;;;;;;;;;28.20;80.00;;;;;;5027989;28;19951;-54
2022/08/16 05:49:25;;;;;;;;;;;28.20;80.00;;;;;;5020786;28;19932;-54
2022/08/16 05:52:07;;;;;;;;;;;28.20;80.00;;;;;;5018263;28;19940;-56
2022/08/16 05:54:41;;;;;;;;;;;28.20;80.00;;;;;;5015248;28;19932;-56
2022/08/16 05:57:14;;;;;;;;;;;28.20;80.00;;;;;;5026835;28;19929;-54
2022/08/16 05:59:41;;;;;;;;;;;28.20;80.00;;;;;;5019710;28;19928;-51
2022/08/16 06:02:09;;;;;;;;;;;28.20;80.00;;;;;;5005055;28;19936;-55
2022/08/16 06:04:38;;;;;;;;;;;28.20;80.00;;;;;;5018990;28;20000;-53
2022/08/16 06:07:15;;;;;;;;;;;28.20;80.00;;;;;;5015186;28;19951;-53
2022/08/16 06:10:12;;;;;;;;;;;28.20;80.00;;;;;;5027197;28;19943;-53
2022/08/16 06:12:40;;;;;;;;;;;28.20;80.10;;;;;;5029359;28;19929;-51
2022/08/16 06:15:10;;;;;;;;;;;28.20;80.10;;;;;;5016059;28;19925;-60
2022/08/16 06:17:41;;;;;;;;;;;28.20;80.10;;;;;;5034781;28;20389;-53
2022/08/16 06:20:19;;;;;;;;;;;28.20;80.10;;;;;;5017417;28;19933;-54
2022/08/16 06:22:56;;;;;;;;;;;28.20;80.10;;;;;;5011784;28;19933;-53
2022/08/16 06:25:37;;;;;;;;;;;28.20;80.10;;;;;;5018476;28;20159;-56
2022/08/16 06:28:08;;;;;;;;;;;28.20;80.10;;;;;;5020334;28;19940;-57
2022/08/16 06:30:38;;;;;;;;;;;28.20;80.10;;;;;;5013546;28;20392;-53
2022/08/16 06:33:12;;;;;;;;;;;28.20;80.10;;;;;;5017213;28;20348;-54
2022/08/16 06:35:46;;;;;;;;;;;28.20;80.10;;;;;;5026868;28;19932;-56
2022/08/16 06:38:13;;;;;;;;;;;28.10;80.10;;;;;;5029101;28;19936;-55
2022/08/16 06:41:04;;;;;;;;;;;28.20;80.10;;;;;;5016751;28;19928;-55
2022/08/16 06:43:32;;;;;;;;;;;28.20;80.10;;;;;;5021714;28;19925;-56
2022/08/16 06:46:04;;;;;;;;;;;28.20;80.10;;;;;;5017436;28;20702;-55
2022/08/16 06:48:31;;;;;;;;;;;28.20;80.10;;;;;;5014458;28;19925;-54
2022/08/16 06:51:03;;;;;;;;;;;28.20;80.10;;;;;;5031123;28;19940;-55
2022/08/16 06:53:33;;;;;;;;;;;28.20;80.10;;;;;;5029579;28;20003;-56
2022/08/16 06:56:05;;;;;;;;;;;28.20;80.20;;;;;;5034453;28;19925;-53
2022/08/16 06:58:57;;;;;;;;;;;28.20;80.20;;;;;;5040209;28;20327;-55
2022/08/16 07:01:30;;;;;;;;;;;28.20;80.20;;;;;;5025585;28;19929;-54
2022/08/16 07:04:11;;;;;;;;;;;28.20;80.20;;;;;;5018013;28;19931;-50
2022/08/16 07:06:59;;;;;;;;;;;28.20;80.20;;;;;;5010974;28;20007;-56
2022/08/16 07:09:26;;;;;;;;;;;28.20;80.30;;;;;;5019194;28;19929;-52
2022/08/16 07:11:57;;;;;;;;;;;28.20;80.20;;;;;;5033801;28;19941;-56
2022/08/16 07:14:34;;;;;;;;;;;28.20;80.20;;;;;;5010609;28;20367;-56
2022/08/16 07:17:06;;;;;;;;;;;28.30;80.30;;;;;;5015476;28;19957;-58
2022/08/16 07:19:41;;;;;;;;;;;28.30;80.30;;;;;;5016772;28;19925;-56
2022/08/16 07:22:37;;;;;;;;;;;28.30;80.30;;;;;;5021011;28;19936;-57
2022/08/16 07:25:14;;;;;;;;;;;28.30;80.40;;;;;;5019624;28;19937;-59
2022/08/16 07:27:43;;;;;;;;;;;28.30;80.40;;;;;;5024426;28;19929;-59
2022/08/16 07:30:15;;;;;;;;;;;28.30;80.40;;;;;;5019356;28;20083;-57
2022/08/16 07:33:04;;;;;;;;;;;28.30;80.40;;;;;;5013233;28;19944;-57
2022/08/16 07:35:34;;;;;;;;;;;28.30;80.40;;;;;;5010728;28;20468;-58
2022/08/16 07:38:03;;;;;;;;;;;28.30;80.40;;;;;;5016837;28;19928;-55
2022/08/16 07:40:38;;;;;;;;;;;28.30;80.40;;;;;;5013298;28;20316;-56
2022/08/16 07:43:26;;;;;;;;;;;28.30;80.50;;;;;;5039851;28;20478;-57
2022/08/16 07:45:58;;;;;;;;;;;28.30;80.50;;;;;;5014365;28;20385;-58
2022/08/16 07:48:28;;;;;;;;;;;28.30;80.50;;;;;;5015633;28;19936;-56
2022/08/16 07:50:56;;;;;;;;;;;28.30;80.50;;;;;;5016751;28;19925;-54
2022/08/16 07:53:28;;;;;;;;;;;28.30;80.50;;;;;;5023942;28;19932;-52
2022/08/16 07:55:58;;;;;;;;;;;28.30;80.50;;;;;;5018700;28;19928;-55
2022/08/16 07:58:32;;;;;;;;;;;28.30;80.50;;;;;;5020376;28;19925;-52
2022/08/16 08:01:06;;;;;;;;;;;28.40;80.60;;;;;;5019939;28;20046;-52
2022/08/16 08:03:45;;;;;;;;;;;28.40;80.60;;;;;;5035361;28;19936;-56
2022/08/16 08:06:18;;;;;;;;;;;28.40;80.60;;;;;;5020479;28;19929;-55
2022/08/16 08:08:45;;;;;;;;;;;28.40;80.60;;;;;;5020585;28;19929;-59
2022/08/16 08:11:18;;;;;;;;;;;28.40;80.60;;;;;;5055345;28;20007;-60
2022/08/16 08:13:48;;;;;;;;;;;28.40;80.60;;;;;;5024771;28;19936;-54
2022/08/16 08:16:20;;;;;;;;;;;28.40;80.70;;;;;;5043012;28;19929;-56
2022/08/16 08:18:47;;;;;;;;;;;28.40;80.70;;;;;;5021284;28;19948;-53
2022/08/16 08:21:23;;;;;;;;;;;28.40;80.70;;;;;;5028505;28;19931;-54
2022/08/16 08:24:11;;;;;;;;;;;28.40;80.70;;;;;;5021192;28;19929;-58
2022/08/16 08:26:41;;;;;;;;;;;28.40;80.70;;;;;;5022693;28;19929;-53
2022/08/16 08:29:11;;;;;;;;;;;28.40;80.70;;;;;;5025709;28;20315;-51
2022/08/16 08:31:41;;;;;;;;;;;28.40;80.70;;;;;;5033761;28;20671;-52
2022/08/16 08:34:09;;;;;;;;;;;28.50;80.80;;;;;;5016768;28;19936;-54
2022/08/16 08:36:38;;;;;;;;;;;28.40;80.70;;;;;;5039056;28;19940;-56
2022/08/16 08:39:21;;;;;;;;;;;28.50;80.80;;;;;;5042871;28;20300;-55
2022/08/16 08:41:49;;;;;;;;;;;28.50;80.80;;;;;;5030008;28;20245;-55
2022/08/16 08:44:19;;;;;;;;;;;28.50;80.80;;;;;;5013403;28;20400;-54
2022/08/16 08:47:04;;;;;;;;;;;28.50;80.80;;;;;;5028329;28;20361;-54
2022/08/16 08:49:38;;;;;;;;;;;28.50;80.80;;;;;;5030258;28;19936;-56
2022/08/16 08:52:18;;;;;;;;;;;28.40;80.80;;;;;;5021675;28;20345;-52
2022/08/16 08:55:06;;;;;;;;;;;28.50;80.80;;;;;;5042752;28;19929;-55
2022/08/16 08:57:39;;;;;;;;;;;28.50;80.80;;;;;;5015913;28;19932;-56
2022/08/16 09:00:31;;;;;;;;;;;28.50;80.80;;;;;;5020103;28;19925;-55
2022/08/16 09:03:16;;;;;;;;;;;28.50;80.80;;;;;;5022188;28;19925;-57
2022/08/16 09:05:45;;;;;;;;;;;28.50;80.80;;;;;;5040040;28;20356;-54
2022/08/16 09:08:18;;;;;;;;;;;28.50;80.80;;;;;;5023350;28;19936;-60
2022/08/16 09:10:55;;;;;;;;;;;28.50;80.80;;;;;;5017796;28;19925;-57
2022/08/16 09:13:31;;;;;;;;;;;28.50;80.80;;;;;;5021307;28;20387;-56
2022/08/16 09:15:59;;;;;;;;;;;28.50;80.90;;;;;;5019784;28;20259;-51
2022/08/16 09:18:28;;;;;;;;;;;28.50;80.90;;;;;;5006063;28;19985;-55
2022/08/16 09:21:05;;;;;;;;;;;28.50;80.90;;;;;;5040220;28;20249;-57
2022/08/16 09:23:36;;;;;;;;;;;28.50;80.90;;;;;;5012537;28;19925;-58
2022/08/16 09:26:06;;;;;;;;;;;28.50;80.90;;;;;;5021175;28;19945;-56
2022/08/16 09:28:54;;;;;;;;;;;28.50;80.90;;;;;;5020703;28;19933;-56
2022/08/16 09:31:42;;;;;;;;;;;28.50;80.90;;;;;;5024184;28;20343;-57
2022/08/16 09:34:10;;;;;;;;;;;28.50;80.80;;;;;;5034000;28;20144;-54
2022/08/16 09:36:45;;;;;;;;;;;28.50;80.80;;;;;;5033913;28;19929;-58
2022/08/16 09:39:13;;;;;;;;;;;28.50;80.80;;;;;;5032676;28;20365;-54
2022/08/16 09:41:43;;;;;;;;;;;28.50;80.80;;;;;;5036204;28;19929;-51
2022/08/16 09:44:22;;;;;;;;;;;28.50;80.80;;;;;;5034055;28;19936;-56
2022/08/16 09:47:10;;;;;;;;;;;28.50;80.90;;;;;;5040080;28;19972;-57
2022/08/16 09:49:37;;;;;;;;;;;28.50;80.90;;;;;;5038302;28;19925;-58
2022/08/16 09:52:08;;;;;;;;;;;28.50;80.90;;;;;;5028758;28;19925;-56
2022/08/16 09:54:36;;;;;;;;;;;28.50;80.90;;;;;;5029929;28;20295;-52
2022/08/16 09:57:03;;;;;;;;;;;28.50;80.90;;;;;;5032020;28;19936;-57
2022/08/16 09:59:31;;;;;;;;;;;28.50;80.90;;;;;;5039387;28;20388;-56
2022/08/16 10:02:08;;;;;;;;;;;28.50;80.90;;;;;;5028619;28;19936;-56
2022/08/16 10:04:56;;;;;;;;;;;28.50;80.90;;;;;;5037464;28;19960;-50
2022/08/16 10:07:25;;;;;;;;;;;28.50;80.90;;;;;;5033379;28;20682;-52
2022/08/16 10:10:11;;;;;;;;;;;28.50;80.90;;;;;;5036374;28;19953;-57
2022/08/16 10:15:30;;;;;;;;;;;28.50;80.90;;;;;;5014530;28;19929;-56
2022/08/16 10:17:58;;;;;;;;;;;28.50;80.90;;;;;;5033062;28;19936;-56
2022/08/16 10:20:33;;;;;;;;;;;28.50;80.90;;;;;;5035645;28;19940;-57
2022/08/16 10:23:02;;;;;;;;;;;28.50;80.90;;;;;;5016828;28;19929;-55
2022/08/16 10:25:38;;;;;;;;;;;28.50;81.00;;;;;;5025771;28;19929;-55
2022/08/16 10:28:26;;;;;;;;;;;28.50;80.90;;;;;;5024928;28;19932;-55
2022/08/16 10:31:00;;;;;;;;;;;28.60;81.00;;;;;;5030520;28;20035;-54
2022/08/16 10:33:31;;;;;;;;;;;28.60;81.00;;;;;;5035724;28;20719;-52
2022/08/16 10:36:03;;;;;;;;;;;28.60;81.00;;;;;;5034171;28;19996;-54
2022/08/16 10:38:32;;;;;;;;;;;28.60;81.00;;;;;;5035521;28;19940;-56
2022/08/16 10:41:04;;;;;;;;;;;28.50;80.90;;;;;;5034821;28;20367;-57
2022/08/16 10:43:33;;;;;;;;;;;28.50;80.90;;;;;;5039487;28;20422;-53
2022/08/16 10:46:02;;;;;;;;;;;28.60;81.00;;;;;;5038886;28;19929;-56
2022/08/16 10:48:49;;;;;;;;;;;28.60;81.00;;;;;;5034312;28;19944;-50
2022/08/16 10:51:18;;;;;;;;;;;28.60;81.00;;;;;;5031965;28;19929;-54
2022/08/16 10:53:45;;;;;;;;;;;28.60;81.00;;;;;;5027910;28;19929;-54
2022/08/16 10:56:12;;;;;;;;;;;28.60;81.00;;;;;;5032830;28;19929;-55
2022/08/16 10:58:59;;;;;;;;;;;28.60;81.00;;;;;;5030240;28;19932;-58
2022/08/16 11:01:46;;;;;;;;;;;28.60;81.00;;;;;;5030903;28;19932;-53
2022/08/16 11:04:33;;;;;;;;;;;28.60;81.00;;;;;;5031928;28;19929;-53
2022/08/16 11:07:20;;;;;;;;;;;28.60;81.00;;;;;;5031562;28;20040;-54
2022/08/16 11:10:09;;;;;;;;;;;28.60;81.00;;;;;;5027477;28;19932;-54
2022/08/16 11:12:56;;;;;;;;;;;28.60;81.00;;;;;;5036213;28;20008;-51
2022/08/16 11:15:43;;;;;;;;;;;28.60;81.00;;;;;;5027154;28;20714;-56
2022/08/16 11:18:22;;;;;;;;;;;28.60;81.00;;;;;;5037466;28;19939;-57
2022/08/16 11:21:09;;;;;;;;;;;28.60;81.00;;;;;;5033987;28;19940;-57
2022/08/16 11:23:56;;;;;;;;;;;28.60;81.00;;;;;;5019239;28;19929;-54
2022/08/16 11:26:26;;;;;;;;;;;28.60;81.00;;;;;;5036319;28;19936;-55
2022/08/16 11:28:55;;;;;;;;;;;28.60;80.90;;;;;;5022520;28;19925;-57
2022/08/16 11:31:42;;;;;;;;;;;28.60;81.60;;;;;;5031536;28;19929;-55
2022/08/16 11:34:20;;;;;;;;;;;28.60;81.00;;;;;;5039420;28;19940;-56
2022/08/16 11:36:48;;;;;;;;;;;28.60;81.00;;;;;;5031543;28;19940;-55
2022/08/16 11:39:27;;;;;;;;;;;28.60;81.00;;;;;;5030155;28;19925;-51
2022/08/16 11:41:56;;;;;;;;;;;28.60;81.10;;;;;;5035351;28;19929;-57
2022/08/16 11:44:24;;;;;;;;;;;28.50;81.00;;;;;;5036170;28;20496;-54
2022/08/16 11:47:11;;;;;;;;;;;28.60;81.10;;;;;;5036570;28;19925;-51
2022/08/16 11:49:38;;;;;;;;;;;28.60;81.10;;;;;;5039554;28;19933;-58
2022/08/16 11:52:06;;;;;;;;;;;28.60;81.10;;;;;;5039409;28;19932;-54
2022/08/16 11:54:34;;;;;;;;;;;28.60;81.00;;;;;;5031855;28;19936;-56
2022/08/16 11:57:03;;;;;;;;;;;28.60;81.00;;;;;;5035065;28;19948;-58
2022/08/16 11:59:36;;;;;;;;;;;28.60;80.90;;;;;;5034490;28;20303;-56
2022/08/16 12:02:07;;;;;;;;;;;28.60;81.00;;;;;;5031035;28;19929;-54
2022/08/16 12:04:54;;;;;;;;;;;28.60;81.00;;;;;;5034983;28;20025;-54
2022/08/16 12:07:21;;;;;;;;;;;28.60;81.00;;;;;;5037690;28;19936;-56
2022/08/16 12:09:50;;;;;;;;;;;28.60;81.00;;;;;;5037708;28;19929;-57
2022/08/16 12:12:19;;;;;;;;;;;28.60;81.00;;;;;;5042615;28;20050;-55
2022/08/16 12:14:50;;;;;;;;;;;28.60;81.00;;;;;;5041100;28;20285;-55
2022/08/16 12:17:30;;;;;;;;;;;28.60;81.00;;;;;;5016958;28;19925;-50
2022/08/16 12:20:05;;;;;;;;;;;28.50;81.00;;;;;;5041897;28;19929;-56
2022/08/16 12:22:35;;;;;;;;;;;28.60;81.00;;;;;;5039163;28;19943;-53
2022/08/16 12:25:04;;;;;;;;;;;28.50;81.00;;;;;;5035629;28;19939;-53
2022/08/16 12:27:32;;;;;;;;;;;28.60;81.00;;;;;;5032815;28;20315;-51
2022/08/16 12:30:00;;;;;;;;;;;28.60;81.00;;;;;;5035164;28;19944;-53
2022/08/16 12:32:28;;;;;;;;;;;28.60;81.00;;;;;;5031045;28;19933;-52
2022/08/16 12:35:06;;;;;;;;;;;28.60;81.00;;;;;;5035807;28;19932;-53
2022/08/16 12:37:34;;;;;;;;;;;28.50;81.00;;;;;;5033324;28;19999;-55
2022/08/16 12:40:01;;;;;;;;;;;28.50;81.00;;;;;;5034197;28;19932;-55
2022/08/16 12:42:33;;;;;;;;;;;28.60;81.00;;;;;;5024203;28;20317;-52
2022/08/16 12:45:03;;;;;;;;;;;28.60;80.90;;;;;;5023598;28;19932;-54
2022/08/16 12:50:17;;;;;;;;;;;28.60;80.90;;;;;;5033755;28;19932;-51
2022/08/16 12:52:44;;;;;;;;;;;28.60;80.90;;;;;;5022785;28;19929;-57
2022/08/16 12:55:20;;;;;;;;;;;28.60;81.00;;;;;;5037900;28;20383;-58
2022/08/16 12:57:54;;;;;;;;;;;28.60;81.00;;;;;;5037684;28;19936;-53
2022/08/16 13:00:28;;;;;;;;;;;28.60;81.10;;;;;;5038437;28;19936;-56
2022/08/16 13:03:00;;;;;;;;;;;28.60;81.00;;;;;;5031093;28;20299;-59
2022/08/16 13:05:28;;;;;;;;;;;28.70;81.10;;;;;;5044481;28;19933;-57
2022/08/16 13:07:57;;;;;;;;;;;28.70;81.10;;;;;;5035732;28;19925;-56
2022/08/16 13:10:28;;;;;;;;;;;28.70;81.10;;;;;;5034770;28;19925;-51
2022/08/16 13:13:06;;;;;;;;;;;28.70;81.10;;;;;;5041172;28;19926;-52
2022/08/16 13:15:35;;;;;;;;;;;28.70;81.10;;;;;;5030393;28;19929;-55
2022/08/16 13:18:23;;;;;;;;;;;28.70;81.00;;;;;;5030273;28;19925;-52
2022/08/16 13:21:05;;;;;;;;;;;28.80;81.10;;;;;;5041210;28;19935;-57
2022/08/16 13:23:33;;;;;;;;;;;28.80;81.10;;;;;;5035459;28;19932;-55
2022/08/16 13:26:02;;;;;;;;;;;28.80;81.10;;;;;;5037635;28;19932;-56
2022/08/16 13:28:29;;;;;;;;;;;28.80;81.60;;;;;;5046403;28;19929;-59
2022/08/16 13:30:56;;;;;;;;;;;28.90;81.20;;;;;;5036051;28;19932;-54
2022/08/16 13:33:27;;;;;;;;;;;28.90;81.20;;;;;;5042976;28;20336;-54
2022/08/16 13:35:57;;;;;;;;;;;28.90;81.10;;;;;;5042956;28;19925;-49
2022/08/16 13:38:28;;;;;;;;;;;29.00;81.10;;;;;;5019735;28;20412;-56
2022/08/16 13:41:07;;;;;;;;;;;29.00;81.20;;;;;;5034882;28;19929;-51
2022/08/16 13:43:36;;;;;;;;;;;29.00;81.10;;;;;;5034035;28;19935;-55
2022/08/16 13:46:05;;;;;;;;;;;29.00;81.10;;;;;;5017598;28;19929;-55
2022/08/16 13:48:32;;;;;;;;;;;29.10;81.00;;;;;;5034714;28;19925;-53
2022/08/16 13:51:15;;;;;;;;;;;29.10;81.00;;;;;;5039034;28;19928;-54
2022/08/16 13:53:48;;;;;;;;;;;29.10;80.80;;;;;;5036484;28;19935;-50
2022/08/16 13:56:29;;;;;;;;;;;29.10;80.70;;;;;;5035092;28;19933;-54
2022/08/16 13:59:06;;;;;;;;;;;29.20;80.60;;;;;;5039742;28;19932;-59
2022/08/16 14:01:51;;;;;;;;;;;29.30;80.60;;;;;;5029057;28;19948;-52
2022/08/16 14:04:23;;;;;;;;;;;29.30;80.50;;;;;;5040674;28;20400;-55
2022/08/16 14:06:54;;;;;;;;;;;29.30;80.40;;;;;;5036724;28;20359;-54
2022/08/16 14:09:22;;;;;;;;;;;29.40;80.30;;;;;;5031452;28;20277;-58
2022/08/16 14:11:50;;;;;;;;;;;29.40;80.30;;;;;;5028842;28;20113;-55
2022/08/16 14:14:19;;;;;;;;;;;29.50;80.20;;;;;;5038949;28;19929;-59
2022/08/16 14:16:57;;;;;;;;;;;29.50;80.20;;;;;;5038459;28;19932;-56
2022/08/16 14:19:24;;;;;;;;;;;29.50;80.10;;;;;;5037493;28;19929;-56
2022/08/16 14:21:54;;;;;;;;;;;29.50;80.00;;;;;;5018996;28;19929;-53
2022/08/16 14:24:22;;;;;;;;;;;29.50;79.90;;;;;;5035976;28;19929;-57
2022/08/16 14:26:56;;;;;;;;;;;29.60;79.90;;;;;;5036212;28;20294;-54
2022/08/16 14:29:23;;;;;;;;;;;29.60;79.90;;;;;;5032344;28;19929;-55
2022/08/16 14:31:58;;;;;;;;;;;29.70;79.90;;;;;;5036261;28;19928;-52
2022/08/16 14:34:25;;;;;;;;;;;29.70;79.80;;;;;;5036580;28;19929;-56
2022/08/16 14:36:56;;;;;;;;;;;29.80;79.80;;;;;;5017544;28;20447;-51
2022/08/16 14:39:25;;;;;;;;;;;29.80;79.70;;;;;;5042765;28;19925;-54
2022/08/16 14:41:53;;;;;;;;;;;29.90;79.70;;;;;;5033649;28;19925;-52
2022/08/16 14:44:22;;;;;;;;;;;29.90;79.60;;;;;;5027659;28;19936;-53
2022/08/16 14:46:49;;;;;;;;;;;29.90;79.50;;;;;;5033312;28;19952;-54
2022/08/16 14:49:18;;;;;;;;;;;30.00;79.50;;;;;;5043279;28;19928;-55
2022/08/16 14:51:47;;;;;;;;;;;30.00;79.40;;;;;;5027490;28;19940;-57
2022/08/16 14:54:14;;;;;;;;;;;30.10;79.30;;;;;;5029335;28;19929;-56
2022/08/16 14:56:42;;;;;;;;;;;30.10;79.30;;;;;;5045414;28;19937;-55
2022/08/16 14:59:21;;;;;;;;;;;30.10;79.20;;;;;;5031546;28;19944;-55
2022/08/16 15:01:50;;;;;;;;;;;30.10;79.20;;;;;;5023094;28;20559;-58